Tiempo atmosférico en la estación meteorológica de Izaña, Santa Cruz de Tenerife (2371 m.)



Fecha
DESCASC
Temp. máxima en grados centígrados (hora)
DESCASC
Temp. mínima en grados centígrados (hora)
DESCASC
Temp. media en grados centígrados
DESCASC
Racha de viento máxima en m/sg (hora)
DESCASC
Velocidad máxima media en intervalos de 10 minutos(hora)
DESCASC
Precipitaciones diarias en mm
DESCASC
Precipitaciones de 00:00 a 06:00 en mm
DESCASC
Precipitaciones de 06:00 a 12:00 en mm
DESCASC
Precipitaciones de 12:00 a 18:00 en mm
DESCASC
Precipitaciones de 18:00 a 24:00 en mm
DESCASC
15-08-2019 22.9 (14:30) 13.2 (00:10) 18 13.33 (18:20) 9.17 (18:30) 0 0 0 0 0
14-08-2019 19.3 (15:20) 13.1 (00:00) 16.2 9.17 (16:30) 6.11 (16:40) 0 0 0 0 0
13-08-2019 19 (15:20) 10.4 (00:00) 14.7 11.67 (00:30) 8.06 (03:30) 0 0 0 0 0
12-08-2019 21.3 (14:20) 11 (00:00) 16.1 13.89 (13:00) 8.61 (12:40) 0 0 0 0 0
11-08-2019 23.1 (15:50) 12.5 (00:00) 17.8 11.39 (01:10) 10.28 (00:20) 0 0 0 0 0
10-08-2019 22.4 (14:00) 14.6 (00:00) 18.5 10.56 (23:59) 9.72 (23:59) 0 0 0 0 0
09-08-2019 23.1 (14:20) 16 (00:00) 19.6 15.56 (08:10) 11.67 (08:40) 0 0 0 0 0
08-08-2019 26.7 (12:20) 17.8 (00:00) 22.3 15.28 (13:10) 8.61 (07:20) 0 0 0 0 0
07-08-2019 25.7 (16:20) 14.1 (00:00) 19.9 13.33 (13:30) 8.33 (05:00) 0 0 0 0 0
06-08-2019 20.8 (18:40) 8.4 (00:00) 14.6 8.33 (14:40) 5 (23:30) 0 0 0 0 0
05-08-2019 17.2 (15:50) 8.3 (00:00) 12.8 9.72 (17:20) 6.67 (17:10) 0 0 0 0 0
04-08-2019 18.8 (14:40) 10.8 (00:00) 14.8 8.61 (17:50) 6.67 (00:40) 0 0 0 0 0
03-08-2019 19.4 (15:20) 9.7 (00:00) 14.5 8.33 (08:40) 7.5 (09:50) 0 0 0 0 0
02-08-2019 20.6 (15:20) 12.6 (00:00) 16.6 8.33 (15:30) 5.83 (08:00) 0 0 0 0 0
01-08-2019 19.5 (16:50) 11.4 (00:00) 15.4 9.17 (14:10) 6.94 (18:50) 0 0 0 0 0
31-07-2019 20.4 (14:30) 9.3 (00:00) 14.8 12.22 (03:30) 8.33 (04:10) 0 0 0 0 0
30-07-2019 18.1 (13:50) 8.2 (00:00) 13.2 12.22 (02:40) 9.17 (06:40) 0 0 0 0 0
29-07-2019 17.7 (16:40) 8.4 (00:00) 13.1 13.61 (21:30) 10.28 (21:30) 0 0 0 0 0
28-07-2019 22.1 (14:10) 12 (00:00) 17.1 10.83 (00:10) 9.72 (00:10) 0 0 0 0 0
27-07-2019 25.3 (14:20) 15.5 (00:00) 20.4 15 (06:40) 13.33 (06:40) 0 0 0 0 0
26-07-2019 26.8 (13:00) 17.9 (00:00) 22.3 11.94 (21:10) 10.28 (21:20) 0 0 0 0 0
25-07-2019 24.2 (13:30) 16.1 (00:00) 20.2 8.06 (14:00) 5 (14:00) 0 0 0 0 0
24-07-2019 22.2 (14:20) 12.5 (00:00) 17.4 8.61 (00:40) 5.83 (00:40) 0 0 0 0 0
23-07-2019 21.1 (15:10) 12.5 (00:00) 16.8 13.33 (18:40) 10.56 (18:30) 0 0 0 0 0
22-07-2019 23.5 (14:40) 13.6 (00:00) 18.6 15.28 (17:30) 11.94 (18:00) 0 0 0 0 0
21-07-2019 23.7 (16:00) 14.8 (00:00) 19.3 9.44 (18:40) 6.39 (21:20) 0 0 0 0 0
20-07-2019 20.4 (12:40) 9.8 (00:00) 15.1 11.39 (00:10) 8.89 (00:10) 0 0 0 0 0
19-07-2019 18.5 (14:20) 9.8 (00:00) 14.2 13.33 (22:10) 9.44 (22:30) 0 0 0 0 0

Gráficas

Temp. máximas Temp. mínimas Temp. medias Precipitaciones Rachas de viento máximas Velocidades máximas media en intervalos de 10 minutos

Datos horarios

Fecha y hora oficial Temperatura (ºC) Velocidad del viento (km/h) Dirección del viento Racha (km/h) Dirección de racha Precipitación (mm) Presión (hPa) Tendencia (hPa) Humedad (%)
2019-08-17 23:00:00 19.1 17 Este 22 Este 0 776.1 0.8 19
2019-08-17 22:00:00 19.1 16 Este 20 Este 0 775.8 0.7 19
2019-08-17 21:00:00 19.3 15 Sudeste 18 Sudeste 0 775.5 0.4 19
2019-08-17 20:00:00 20.6 14 Sudeste 27 Sudeste 0 775.3 0.2 17
2019-08-17 19:00:00 22.5 20 Sudeste 33 Sudeste 0 775.1 -0.1 16
2019-08-17 18:00:00 23.1 26 Sudeste 41 Sudeste 0 775.1 -0.3 16
2019-08-17 17:00:00 24.2 28 Sudeste 47 Sudeste 0 775.1 -0.6 16
2019-08-17 16:00:00 24.6 34 Sudeste 50 Sudeste 0 775.2 -0.5 17
2019-08-17 15:00:00 25.3 32 Sudeste 48 Este 0 775.4 -0.4 15
2019-08-17 14:00:00 24.8 33 Sudeste 53 Sudeste 0 775.7 0.1 15
2019-08-17 13:00:00 25.3 29 Sudeste 50 Sudeste 0 775.7 0.4 17
2019-08-17 12:00:00 24.4 31 Sudeste 45 Sudeste 0 775.8 0.6 16
2019-08-17 11:00:00 23.6 28 Sudeste 45 Sudeste 0 775.6 0.6 16
2019-08-17 10:00:00 22.4 23 Sudeste 39 Sudeste 0 775.3 0.6 15
2019-08-17 09:00:00 20.9 18 Este 31 Este 0 775.2 0.7 17
2019-08-17 08:00:00 18.5 18 Este 29 Este 0 775 0.6 20
2019-08-17 07:00:00 18.3 18 Sudeste 30 Sudeste 0 774.7 0 24
2019-08-17 06:00:00 18.4 18 Sudeste 24 Sudeste 0 774.5 -0.4 25
2019-08-17 05:00:00 18.7 14 Sudeste 21 Sudeste 0 774.4 -1 23
2019-08-17 04:00:00 18.9 15 Sudeste 26 Sudeste 0 774.7 -1 24
2019-08-17 03:00:00 20 19 Sudeste 26 Sudeste 0 774.9 -0.9 26
2019-08-17 02:00:00 19.9 17 Sudeste 27 Sudeste 0 775.4 -0.5 27
2019-08-17 01:00:00 20.1 25 Sudeste 30 Sudeste 0 775.7 0.2 27
2019-08-17 00:00:00 20 27 Sudeste 32 Sudeste 0 775.8 0.5 27
2019-08-16 23:00:00 20.3 28 Sudeste 32 Sudeste 0 775.9 1 27
2019-08-16 22:00:00 20.5 26 Sur 32 Sur 0 775.5 0.5 27
2019-08-16 21:00:00 20.5 25 Sudeste 33 Sudeste 0 775.3 0.2 27
2019-08-16 20:00:00 21.2 26 Sudeste 36 Sudeste 0 774.9 -0.3 26
2019-08-16 19:00:00 22.6 23 Sudeste 35 Sudeste 0 775 -0.2 23
2019-08-16 18:00:00 24.1 22 Sudeste 34 Sudeste 0 775.1 -0.3 21
2019-08-16 17:00:00 25.1 25 Sudeste 47 Sur 0 775.2 -0.3 20
2019-08-16 16:00:00 25.6 30 Sur 53 Sur 0 775.2 -0.6 20
2019-08-16 15:00:00 26 32 Sur 48 Sur 0 775.4 -0.5 19
2019-08-16 14:00:00 26.6 27 Sudeste 46 Sudeste 0 775.5 -0.4 16
2019-08-16 13:00:00 26.3 28 Sudeste 46 Sudeste 0 775.8 0.3 16
2019-08-16 12:00:00 25.3 27 Sudeste 48 Sudeste 0 775.9 0.8 15
2019-08-16 11:00:00 24.4 30 Sudeste 42 Sudeste 0 775.9 1 13
2019-08-16 10:00:00 22.4 26 Sudeste 33 Sudeste 0 775.5 0.8 12
2019-08-16 09:00:00 20.8 18 Sudeste 21 Sudeste 0 775.1 0.5 14
2019-08-16 08:00:00 20.3 13 Sudeste 15 Sur 0 774.9 0.3 16
2019-08-16 07:00:00 20.3 13 Sur 17 Sur 0 774.7 0 16
2019-08-16 06:00:00 20 17 Sur 22 Sudoeste 0 774.6 -0.3 17
2019-08-16 05:00:00 19.6 18 Sudoeste 28 Sur 0 774.6 -0.7 16
2019-08-16 04:00:00 19.7 22 Sur 30 Sudoeste 0 774.7 -0.7 16
2019-08-16 03:00:00 19.5 24 Sudoeste 32 Sudoeste 0 774.9 -0.6 15
2019-08-16 02:00:00 19.6 26 Sudoeste 31 Sudoeste 0 775.3 -0.2 13
2019-08-16 01:00:00 19.5 26 Sudoeste 31 Sudoeste 0 775.4 0.3 12
2019-08-16 00:00:00 19.3 27 Sudoeste 36 Sudoeste 0 775.5 0.8 11
2019-08-15 23:00:00 19.4 26 Sudoeste 34 Sudoeste 0 775.5 1.1 10
2019-08-15 22:00:00 19.1 31 Sur 36 Sudoeste 0 775.1 0.8 9
2019-08-15 21:00:00 19 28 Sudoeste 40 Sur 0 774.7 0.3 8
2019-08-15 20:00:00 20.1 30 Sur 42 Sur 0 774.4 0.2 9
2019-08-15 19:00:00 21.3 31 Sur 48 Sur 0 774.3 0.1 10
2019-08-15 18:00:00 21.3 31 Sur 46 Sur 0 774.4 0 13
2019-08-15 17:00:00 21.6 31 Sur 45 Sur 0 774.2 -0.3 13
2019-08-15 16:00:00 21.9 28 Sur 40 Sur 0 774.2 -0.4 17
2019-08-15 15:00:00 22.5 26 Sur 41 Sur 0 774.4 -0.3 17
2019-08-15 14:00:00 22.4 29 Sur 39 Sur 0 774.5 0.1 18
2019-08-15 13:00:00 22.1 24 Sur 38 Sudeste 0 774.6 0.5 24
2019-08-15 12:00:00 22 23 Sur 31 Sur 0 774.7 0.9 20
2019-08-15 11:00:00 21.8 14 Sur 30 Sudoeste 0 774.4 1 20
2019-08-15 10:00:00 20.9 13 Sur 28 Sur 0 774.1 0.8 22
2019-08-15 09:00:00 19 18 Sur 23 Sudoeste 0 773.8 0.6 26
2019-08-15 08:00:00 15.5 18 Sudoeste 21 Sudoeste 0 773.4 0.3 30
2019-08-15 07:00:00 15 17 Sudoeste 21 Sudoeste 0 773.3 0 33
2019-08-15 06:00:00 15.2 21 Sudoeste 26 Sudoeste 0 773.2 -0.2 33
2019-08-15 05:00:00 14.9 17 Oeste 20 Sudoeste 0 773.1 -0.8 35
2019-08-15 04:00:00 15.3 11 Oeste 16 Oeste 0 773.3 -0.8 32
2019-08-15 03:00:00 14.5 12 Noroeste 14 Noroeste 0 773.4 -0.9 22
2019-08-15 02:00:00 14.9 10 Sur 13 Sur 0 773.9 -0.4 13
2019-08-15 01:00:00 14.1 8 Oeste 16 Noroeste 0 774.1 0.1 24
2019-08-15 00:00:00 13.3 10 Noroeste 13 Noroeste 0 774.3 0.9 33
2019-08-14 23:00:00 14 5 Oeste 7 Sur 0 774.3 1.2 37
2019-08-14 22:00:00 14.2 2 Norte 7 Noroeste 0 774 1 38
2019-08-14 21:00:00 15.8 0 Calma 14 Noroeste 0 773.4 0.1 32
2019-08-14 20:00:00 17.7 6 Noroeste 16 Noroeste 0 773.1 -0.3 30
2019-08-14 19:00:00 18.3 6 Sudoeste 22 Sudeste 0 773 -0.4 23
2019-08-14 18:00:00 17.6 15 Sudeste 28 Sur 0 773.3 -0.2 29
2019-08-14 17:00:00 18.1 20 Sudeste 33 Sudeste 0 773.4 -0.3 29
2019-08-14 16:00:00 18.1 18 Sudeste 27 Sudeste 0 773.4 -0.5 26
2019-08-14 15:00:00 18.6 13 Sudeste 27 Sudeste 0 773.5 -0.4 28
2019-08-14 14:00:00 18.8 14 Sudeste 27 Sudeste 0 773.7 0 20
2019-08-14 13:00:00 18.8 11 Sudeste 23 Sudeste 0 773.9 0.3 20
2019-08-14 12:00:00 18.3 15 Sudeste 23 Sudeste 0 773.9 0.8 20
2019-08-14 11:00:00 18.6 11 Sudeste 20 Sudeste 0 773.7 1 23
2019-08-14 10:00:00 17.6 10 Sudeste 19 Sudeste 0 773.6 1.1 28
2019-08-14 09:00:00 16.3 7 Este 12 Este 0 773.1 0.6 27
2019-08-14 08:00:00 14.3 7 Nordeste 9 Nordeste 0 772.7 0.3 28
2019-08-14 07:00:00 13.7 4 Noroeste 12 Noroeste 0 772.5 -0.2 30
2019-08-14 06:00:00 13.5 8 Oeste 11 Sudoeste 0 772.5 -0.6 39
2019-08-14 05:00:00 13.8 9 Sudoeste 11 Oeste 0 772.4 -1.1 44
2019-08-14 04:00:00 13.8 11 Sudoeste 13 Sudoeste 0 772.7 -1.1 47
2019-08-14 03:00:00 14.1 11 Sudoeste 14 Sudoeste 0 773.1 -0.7 44
2019-08-14 02:00:00 13.8 11 Sudoeste 14 Sudoeste 0 773.5 -0.2 47
2019-08-14 01:00:00 13.2 10 Oeste 12 Oeste 0 773.8 0.4 45
2019-08-14 00:00:00 13.2 7 Noroeste 14 Norte 0 773.8 0.9 54
2019-08-13 23:00:00 12.5 9 Norte 17 Norte 0 773.7 1.1 64
2019-08-13 22:00:00 12.4 14 Noroeste 21 Noroeste 0 773.4 0.7 62
2019-08-13 21:00:00 12.7 17 Noroeste 28 Noroeste 0 772.9 0.1 66
2019-08-13 20:00:00 14.2 24 Noroeste 35 Norte 0 772.6 -0.4 58
2019-08-13 19:00:00 15.3 23 Norte 33 Noroeste 0 772.7 -0.5 60
2019-08-13 18:00:00 16.3 21 Norte 36 Norte 0 772.8 -0.9 56
2019-08-13 17:00:00 17.4 21 Norte 32 Norte 0 773 -1 55
2019-08-13 16:00:00 17.9 21 Norte 33 Norte 0 773.2 -1.1 53
2019-08-13 15:00:00 17.9 18 Norte 31 Noroeste 0 773.7 -0.8 50
2019-08-13 14:00:00 17.9 17 Norte 31 Norte 0 774 -0.3 51
2019-08-13 13:00:00 18 18 Noroeste 27 Noroeste 0 774.3 0.3 47
2019-08-13 12:00:00 17.2 13 Norte 21 Norte 0 774.5 0.7 43
2019-08-13 11:00:00 15.8 15 Norte 22 Norte 0 774.3 0.9 48
2019-08-13 10:00:00 14.4 14 Norte 25 Norte 0 774 0.7 52
2019-08-13 09:00:00 12.5 19 Norte 27 Norte 0 773.8 0.5 52
2019-08-13 08:00:00 11.1 19 Norte 27 Norte 0 773.4 0.1 57
2019-08-13 07:00:00 10.9 21 Norte 30 Nordeste 0 773.3 -0.3 69
2019-08-13 06:00:00 11.7 24 Nordeste 34 Nordeste 0 773.3 -0.6 69
2019-08-13 05:00:00 12.1 28 Nordeste 37 Nordeste 0 773.3 -1 63
2019-08-13 04:00:00 12.1 24 Nordeste 39 Nordeste 0 773.6 -1.1 63
2019-08-13 03:00:00 11.7 24 Norte 36 Norte 0 773.9 -1 65
2019-08-13 02:00:00 11.5 23 Norte 37 Norte 0 774.3 -0.5 71
2019-08-13 01:00:00 11.6 25 Norte 42 Nordeste 0 774.7 0.2 70
2019-08-13 00:00:00 11.6 25 Norte 40 Norte 0 774.9 1 68
2019-08-12 23:00:00 11.8 28 Norte 41 Norte 0 774.8 1.1 64
2019-08-12 22:00:00 11.8 27 Norte 40 Norte 0 774.5 1.1 70
2019-08-12 21:00:00 12.9 27 Norte 43 Norte 0 773.9 0.4 57
2019-08-12 20:00:00 14.5 25 Norte 39 Norte 0 773.7 0.2 47
2019-08-12 19:00:00 16.4 24 Norte 39 Norte 0 773.4 -0.3 44
2019-08-12 18:00:00 18.3 20 Norte 34 Norte 0 773.5 -0.5 39
2019-08-12 17:00:00 19.2 19 Norte 33 Norte 0 773.5 -0.7 32
2019-08-12 16:00:00 20.2 18 Este 39 Este 0 773.7 -0.7 29
2019-08-12 15:00:00 20.7 23 Este 39 Este 0 774 -0.5 27
2019-08-12 14:00:00 21 24 Este 45 Este 0 774.2 0 22
2019-08-12 13:00:00 20.7 31 Este 50 Este 0 774.4 0.6 25
2019-08-12 12:00:00 19.5 28 Sudeste 48 Sudeste 0 774.5 0.9 29
2019-08-12 11:00:00 19.4 23 Este 40 Este 0 774.2 0.9 27
2019-08-12 10:00:00 17.7 18 Este 32 Este 0 773.8 0.8 37
2019-08-12 09:00:00 14.6 14 Este 29 Este 0 773.6 0.9 46
2019-08-12 08:00:00 12.7 13 Este 26 Este 0 773.3 0.5 42
2019-08-12 07:00:00 11.2 17 Este 26 Este 0 773 -0.1 54
2019-08-12 06:00:00 11.9 17 Este 28 Este 0 772.7 -0.7 37
2019-08-12 05:00:00 11.9 18 Este 32 Este 0 772.8 -1.1 31
2019-08-12 04:00:00 12.5 24 Este 35 Este 0 773.1 -1.3 25
2019-08-12 03:00:00 12.5 22 Este 33 Este 0 773.4 -1.3 18
2019-08-12 02:00:00 12.9 23 Nordeste 36 Nordeste 0 773.9 -0.8 39
2019-08-12 01:00:00 12.7 23 Nordeste 39 Nordeste 0 774.4 0 51
2019-08-12 00:00:00 12.8 23 Norte 36 Nordeste 0 774.7 0.4 50
2019-08-11 23:00:00 12.9 30 Norte 40 Norte 0 774.7 0.7 57
2019-08-11 22:00:00 13.2 27 Norte 34 Norte 0 774.4 0.6 56
2019-08-11 21:00:00 14.3 23 Noroeste 29 Noroeste 0 774.3 0.3 49
2019-08-11 20:00:00 17.4 21 Norte 31 Norte 0 774 -0.3 35
2019-08-11 19:00:00 20.2 23 Noroeste 32 Norte 0 773.8 -0.8 28
2019-08-11 18:00:00 21.2 18 Norte 28 Norte 0 774 -1 25
2019-08-11 17:00:00 22.2 23 Norte 33 Norte 0 774.3 -0.8 23
2019-08-11 16:00:00 22.7 19 Norte 33 Norte 0 774.6 -0.6 22
2019-08-11 15:00:00 22.6 21 Norte 37 Norte 0 775 -0.4 17
2019-08-11 14:00:00 21.4 27 Norte 41 Norte 0 775.1 -0.4 18
2019-08-11 13:00:00 20.1 28 Norte 41 Norte 0 775.2 -0.1 32
2019-08-11 12:00:00 19.4 26 Norte 41 Norte 0 775.4 0.2 32
2019-08-11 11:00:00 18.9 21 Norte 39 Norte 0 775.5 0.6 26
2019-08-11 10:00:00 17.5 21 Norte 26 Noroeste 0 775.3 0.7 24
2019-08-11 09:00:00 15.8 17 Noroeste 26 Norte 0 775.2 0.5 23
2019-08-11 08:00:00 15 21 Noroeste 30 Noroeste 0 774.9 0.2 14
2019-08-11 07:00:00 15.3 24 Noroeste 30 Noroeste 0 774.6 -0.4 4
2019-08-11 06:00:00 15.7 24 Noroeste 30 Noroeste 0 774.7 -0.5 5
2019-08-11 05:00:00 15.9 26 Noroeste 33 Noroeste 0 774.7 -0.9 8
2019-08-11 04:00:00 15.7 29 Noroeste 35 Noroeste 0 775 -0.9 15
2019-08-11 03:00:00 15.1 28 Noroeste 38 Noroeste 0 775.2 -1.2 8
2019-08-11 02:00:00 14.5 35 Noroeste 41 Noroeste 0 775.6 -1.1 10
2019-08-11 01:00:00 15 37 Noroeste 40 Noroeste 0 775.9 -0.7 16
2019-08-11 00:00:00 15.2 35 Noroeste 38 Noroeste 0 776.4 -0.3 26
2019-08-10 23:00:00 15.5 25 Noroeste 31 Noroeste 0 776.7 0.3 52
2019-08-10 22:00:00 15.6 27 Noroeste 30 Noroeste 0 776.6 0.3 58
2019-08-10 21:00:00 16.2 18 Noroeste 27 Noroeste 0 776.7 0.4 61
2019-08-10 20:00:00 18.5 18 Norte 27 Norte 0 776.4 -0.1 51
2019-08-10 19:00:00 19.6 19 Norte 34 Norte 0 776.3 -0.3 50
2019-08-10 18:00:00 21 21 Noroeste 31 Norte 0 776.3 -0.6 46
2019-08-10 17:00:00 21.3 20 Noroeste 34 Norte 0 776.5 -0.7 45
2019-08-10 16:00:00 20.9 21 Norte 36 Noroeste 0 776.6 -0.8 45
2019-08-10 15:00:00 21.7 19 Norte 34 Norte 0 776.9 -0.5 40
2019-08-10 14:00:00 22.2 17 Noroeste 31 Norte 0 777.2 -0.2 39
2019-08-10 13:00:00 21.1 19 Norte 31 Noroeste 0 777.4 0.3 40
2019-08-10 12:00:00 20.2 23 Norte 32 Norte 0 777.4 0.7 42
2019-08-10 11:00:00 19.7 14 Noroeste 22 Noroeste 0 777.4 0.9 44
2019-08-10 10:00:00 18.1 14 Noroeste 21 Noroeste 0 777.1 0.9 57
2019-08-10 09:00:00 16.9 15 Noroeste 18 Noroeste 0 776.7 0.8 56
2019-08-10 08:00:00 15.6 16 Noroeste 18 Noroeste 0 776.5 0.4 42
2019-08-10 07:00:00 15.1 17 Noroeste 18 Noroeste 0 776.2 -0.2 53
2019-08-10 06:00:00 15.1 16 Noroeste 19 Noroeste 0 775.9 -0.8 48
2019-08-10 05:00:00 15.1 13 Noroeste 15 Noroeste 0 776.1 -1.1 61
2019-08-10 04:00:00 14.8 13 Noroeste 15 Noroeste 0 776.4 -1.2 38
2019-08-10 03:00:00 15.2 13 Noroeste 15 Noroeste 0 776.7 -1.1 40
2019-08-10 02:00:00 15.5 9 Noroeste 13 Noroeste 0 777.2 -0.5 67
2019-08-10 01:00:00 15.8 11 Noroeste 13 Noroeste 0 777.6 0.4 68
2019-08-10 00:00:00 16 10 Noroeste 14 Noroeste 0 777.8 1.1 66
2019-08-09 23:00:00 16.2 12 Noroeste 16 Noroeste 0 777.7 1.4 63
2019-08-09 22:00:00 17 15 Noroeste 18 Noroeste 0 777.2 1.2 60
2019-08-09 21:00:00 17.3 17 Noroeste 24 Noroeste 0 776.7 0.6 37
2019-08-09 20:00:00 19.3 18 Noroeste 30 Noroeste 0 776.3 0.1 42
2019-08-09 19:00:00 20.7 17 Noroeste 31 Norte 0 776 -0.3 39
2019-08-09 18:00:00 22 13 Noroeste 31 Norte 0 776.1 -0.4 35
2019-08-09 17:00:00 22 21 Norte 39 Norte 0 776.2 -0.4 40
2019-08-09 16:00:00 22.4 28 Norte 40 Norte 0 776.3 -0.4 43
2019-08-09 15:00:00 22.6 27 Noroeste 46 Noroeste 0 776.5 -0.1 40
2019-08-09 14:00:00 22.1 33 Norte 48 Norte 0 776.6 0.2 41
2019-08-09 13:00:00 22.1 32 Noroeste 52 Noroeste 0 776.7 0.7 40
2019-08-09 12:00:00 21.1 37 Noroeste 48 Noroeste 0 776.6 1 45
2019-08-09 11:00:00 20.4 31 Norte 42 Noroeste 0 776.4 1.3 47
2019-08-09 10:00:00 19 31 Norte 47 Noroeste 0 776 0.7 55
2019-08-09 09:00:00 17.4 39 Noroeste 56 Noroeste 0 775.6 0.3 60
2019-08-09 08:00:00 16.2 41 Noroeste 51 Noroeste 0 775.1 -0.2 61
2019-08-09 07:00:00 16.3 30 Noroeste 35 Noroeste 0 775.3 -0.2 57
2019-08-09 06:00:00 16.2 24 Noroeste 36 Noroeste 0 775.3 -0.6 55
2019-08-09 05:00:00 16.5 29 Noroeste 37 Noroeste 0 775.3 -1 54
2019-08-09 04:00:00 16.6 25 Noroeste 30 Noroeste 0 775.5 -1.1 50
2019-08-09 03:00:00 17 23 Noroeste 28 Noroeste 0 775.9 -0.7 41
2019-08-09 02:00:00 17.7 21 Noroeste 34 Oeste 0 776.3 -0.2 36
2019-08-09 01:00:00 18.1 23 Oeste 32 Oeste 0 776.6 0.6 38
2019-08-09 00:00:00 18.2 17 Oeste 24 Oeste 0 776.6 1.1 40
2019-08-08 23:00:00 18.7 13 Oeste 21 Oeste 0 776.5 1.3 33
2019-08-08 22:00:00 18.7 14 Oeste 26 Oeste 0 776 0.9 33
2019-08-08 21:00:00 20 11 Oeste 20 Oeste 0 775.5 0.6 30
2019-08-08 20:00:00 22.3 8 Oeste 16 Noroeste 0 775.2 0.3 23
2019-08-08 19:00:00 22.5 8 Sudeste 17 Sudeste 0 775.1 0.1 24
2019-08-08 18:00:00 23.3 11 Sudeste 21 Sudeste 0 774.9 -0.3 23
2019-08-08 17:00:00 24.8 10 Sudeste 26 Sudeste 0 774.9 -0.4 23
2019-08-08 16:00:00 25.1 13 Sudeste 30 Sudeste 0 775 -0.3 20
2019-08-08 15:00:00 25.2 13 Sudeste 24 Sudeste 0 775.2 -0.1 18
2019-08-08 14:00:00 25.4 12 Este 55 Sur 0 775.3 0.4 17
2019-08-08 13:00:00 25.9 13 Sur 45 Sur 0 775.3 1 17
2019-08-08 12:00:00 25.9 8 Sudoeste 46 Oeste 0 775.3 1.4 15
2019-08-08 11:00:00 23.9 17 Oeste 35 Oeste 0 774.9 1.4 14
2019-08-08 10:00:00 22.1 22 Oeste 38 Oeste 0 774.3 1 14
2019-08-08 09:00:00 20.2 27 Oeste 39 Oeste 0 773.9 0.6 15
2019-08-08 08:00:00 18.6 28 Oeste 39 Oeste 0 773.5 0.3 16
2019-08-08 07:00:00 18 30 Oeste 38 Oeste 0 773.3 -0.1 16
2019-08-08 06:00:00 18.5 28 Oeste 35 Oeste 0 773.3 -0.4 17
2019-08-08 05:00:00 18.5 29 Oeste 38 Oeste 0 773.2 -0.8 18
2019-08-08 04:00:00 18.5 27 Oeste 35 Oeste 0 773.4 -0.8 13
2019-08-08 03:00:00 19.3 25 Oeste 32 Oeste 0 773.7 -0.7 12
2019-08-08 02:00:00 19.1 24 Oeste 29 Oeste 0 774 -0.3 10
2019-08-08 01:00:00 19.4 20 Oeste 27 Oeste 0 774.2 0.4 10
2019-08-08 00:00:00 18.8 22 Oeste 27 Oeste 0 774.4 0.8 8
2019-08-07 23:00:00 19.3 19 Oeste 34 Oeste 0 774.3 1 8
2019-08-07 22:00:00 19.9 23 Oeste 35 Oeste 0 773.8 0.6 12
2019-08-07 21:00:00 19.7 19 Oeste 29 Oeste 0 773.6 0.4 8
2019-08-07 20:00:00 21.4 17 Oeste 30 Sudoeste 0 773.3 -0.1 12
2019-08-07 19:00:00 23.3 18 Oeste 32 Oeste 0 773.2 -0.3 13
2019-08-07 18:00:00 25.1 17 Sudoeste 36 Oeste 0 773.2 -0.5 14
2019-08-07 17:00:00 24.8 17 Oeste 46 Oeste 0 773.4 -0.3 14
2019-08-07 16:00:00 25 17 Sudoeste 42 Sudoeste 0 773.5 -0.1 17
2019-08-07 15:00:00 24.8 21 Sudoeste 47 Sudoeste 0 773.7 0.2 15
2019-08-07 14:00:00 25.1 18 Sudoeste 48 Oeste 0 773.7 0.6 11
2019-08-07 13:00:00 24.1 16 Sur 39 Sudoeste 0 773.6 0.6 13
2019-08-07 12:00:00 23.5 21 Sudoeste 37 Sudoeste 0 773.5 0.9 12
2019-08-07 11:00:00 22 17 Sur 29 Sudoeste 0 773.1 1.1 5
2019-08-07 10:00:00 20.4 20 Sur 28 Sur 0 773 1.2 3
2019-08-07 09:00:00 18.6 21 Sur 30 Sudoeste 0 772.6 1.1 3
2019-08-07 08:00:00 16.3 26 Sudoeste 29 Sudoeste 0 772 0.7 3
2019-08-07 07:00:00 16 27 Sudoeste 31 Sudoeste 0 771.8 0.6 3
2019-08-07 06:00:00 15.9 27 Sudoeste 33 Sudoeste 0 771.5 0 3
2019-08-07 05:00:00 15.6 30 Sudoeste 32 Sudoeste 0 771.3 -0.6 3
2019-08-07 04:00:00 15 25 Sur 27 Sur 0 771.2 -0.9 5
2019-08-07 03:00:00 14.7 20 Sur 26 Sur 0 771.5 -0.8 --
2019-08-07 02:00:00 15.7 20 Sur 24 Sur 0 771.9 -0.6 2
2019-08-07 01:00:00 15.5 18 Sur 21 Sur 0 772.1 -0.2 2
2019-08-07 00:00:00 14.4 17 Sudeste 25 Sudeste 0 772.3 0.4 2
2019-08-06 23:00:00 14.3 15 Sudeste 19 Sudeste 0 772.5 0.8 2
2019-08-06 22:00:00 14.9 12 Sudeste 16 Sudeste 0 772.3 0.7 --
2019-08-06 21:00:00 16.1 11 Sudeste 15 Sudeste 0 771.9 0.3 3
2019-08-06 20:00:00 19.1 5 Norte 22 Norte 0 771.7 0 23
2019-08-06 19:00:00 19.8 10 Norte 17 Norte 0 771.6 -0.2 26
2019-08-06 18:00:00 19.5 11 Noroeste 22 Norte 0 771.6 -0.7 21
2019-08-06 17:00:00 19.6 8 Sudeste 22 Sudeste 0 771.7 -0.9 15
2019-08-06 16:00:00 18 18 Sudeste 24 Sudeste 0 771.8 -1 30
2019-08-06 15:00:00 19.2 13 Sudeste 30 Sudeste 0 772.3 -0.6 18
2019-08-06 14:00:00 18.6 16 Sudeste 27 Sudeste 0 772.6 0 20
2019-08-06 13:00:00 18.5 14 Sudeste 28 Sudeste 0 772.8 0.5 21
2019-08-06 12:00:00 18.6 13 Sudeste 24 Sudeste 0 772.9 0.9 16
2019-08-06 11:00:00 16.9 7 Noroeste 12 Noroeste 0 772.6 0.8 11
2019-08-06 10:00:00 15.4 7 Noroeste 16 Noroeste 0 772.3 0.7 10
2019-08-06 09:00:00 13.7 6 Norte 19 Norte 0 772 0.5 6
2019-08-06 08:00:00 11 14 Norte 21 Norte 0 771.8 0.3 15
2019-08-06 07:00:00 11.8 10 Norte 13 Norte 0 771.6 -0.1 9
2019-08-06 06:00:00 12.3 9 Norte 13 Norte 0 771.5 -0.4 7
2019-08-06 05:00:00 13.6 10 Este 16 Este 0 771.5 -0.8 5
2019-08-06 04:00:00 12.5 7 Norte 20 Norte 0 771.7 -1 6
2019-08-06 03:00:00 11 9 Norte 16 Nordeste 0 771.9 -0.9 25
2019-08-06 02:00:00 13.1 13 Nordeste 19 Este 0 772.3 -0.5 7
2019-08-06 01:00:00 12.1 12 Nordeste 19 Este 0 772.7 0.3 9
2019-08-06 00:00:00 8.4 13 Norte 18 Norte 0 772.8 0.5 47
2019-08-05 23:00:00 10.9 8 Norte 22 Norte 0 772.8 0.7 23
2019-08-05 22:00:00 9.8 11 Norte 20 Nordeste 0 772.4 0.4 38
2019-08-05 21:00:00 11.3 8 Nordeste 23 Norte 0 772.3 0.2 25
2019-08-05 20:00:00 12.5 17 Norte 32 Norte 0 772.1 -0.1 51
2019-08-05 19:00:00 14.3 14 Nordeste 27 Este 0 772 -0.3 43
2019-08-05 18:00:00 14.3 15 Este 35 Este 0 772.1 -0.3 42
2019-08-05 17:00:00 15.1 22 Este 34 Sudeste 0 772.2 -0.6 32
2019-08-05 16:00:00 16.7 12 Este 21 Nordeste 0 772.3 -0.6 47
2019-08-05 15:00:00 16.7 10 Este 24 Nordeste 0 772.4 -0.6 58
2019-08-05 14:00:00 15.6 12 Norte 23 Norte 0 772.8 0 66
2019-08-05 13:00:00 15.4 13 Norte 21 Norte 0 772.9 0.3 59
2019-08-05 12:00:00 16.1 9 Nordeste 25 Nordeste 0 773 0.7 44
2019-08-05 11:00:00 14.7 12 Norte 18 Norte 0 772.8 0.8 16
2019-08-05 10:00:00 13.9 10 Norte 14 Norte 0 772.6 0.8 16
2019-08-05 09:00:00 12.8 10 Norte 12 Norte 0 772.3 0.4 16
2019-08-05 08:00:00 12.1 8 Norte 12 Norte 0 772 0.1 15
2019-08-05 07:00:00 11.4 6 Norte 15 Este 0 771.8 -0.2 13
2019-08-05 06:00:00 11.2 12 Este 17 Este 0 771.9 -0.4 16
2019-08-05 05:00:00 10.9 15 Este 20 Este 0 771.9 -0.6 15
2019-08-05 04:00:00 11 14 Sudeste 19 Este 0 772 -1 14
2019-08-05 03:00:00 12 6 Este 10 Nordeste 0 772.3 -0.9 10
2019-08-05 02:00:00 12.1 10 Nordeste 16 Nordeste 0 772.5 -0.5 10
2019-08-05 01:00:00 11.8 9 Nordeste 17 Nordeste 0 773 0.3 10
2019-08-05 00:00:00 11.7 13 Norte 23 Norte 0 773.2 0.7 8
2019-08-04 23:00:00 11.5 10 Norte 28 Norte 0 773 0.8 10
2019-08-04 22:00:00 10.9 18 Norte 22 Norte 0 772.7 0.8 14
2019-08-04 21:00:00 13.4 13 Norte 23 Norte 0 772.5 0.4 13
2019-08-04 20:00:00 15.8 19 Noroeste 27 Noroeste 0 772.2 0 22
2019-08-04 19:00:00 16.5 20 Noroeste 28 Noroeste 0 771.9 -0.5 29
2019-08-04 18:00:00 17.2 21 Noroeste 31 Noroeste 0 772.1 -0.5 26
2019-08-04 17:00:00 18.3 19 Norte 29 Norte 0 772.2 -0.5 28
2019-08-04 16:00:00 18.5 14 Norte 26 Norte 0 772.4 -0.6 16
2019-08-04 15:00:00 18.6 17 Norte 30 Norte 0 772.6 -0.5 16
2019-08-04 14:00:00 17.8 21 Norte 30 Norte 0 772.7 -0.1 28
2019-08-04 13:00:00 17.8 18 Norte 27 Norte 0 773 0.5 24
2019-08-04 12:00:00 17.4 13 Norte 21 Norte 0 773.1 0.9 15
2019-08-04 11:00:00 16.8 16 Norte 21 Norte 0 772.8 0.8 18
2019-08-04 10:00:00 15.4 12 Norte 19 Norte 0 772.5 0.7 11
2019-08-04 09:00:00 13.8 12 Norte 17 Norte 0 772.2 0.6 12
2019-08-04 08:00:00 12.1 11 Norte 21 Norte 0 772 0.3 9
2019-08-04 07:00:00 11.5 13 Norte 20 Norte 0 771.8 -0.1 8
2019-08-04 06:00:00 11.4 16 Noroeste 18 Noroeste 0 771.6 -0.5 8
2019-08-04 05:00:00 11.3 12 Noroeste 16 Noroeste 0 771.7 -0.8 15
2019-08-04 04:00:00 11.7 11 Noroeste 18 Norte 0 771.9 -0.9 19
2019-08-04 03:00:00 11.8 14 Norte 19 Norte 0 772.1 -1 21
2019-08-04 02:00:00 11.9 18 Noroeste 23 Noroeste 0 772.5 -0.5 22
2019-08-04 01:00:00 11.9 21 Noroeste 28 Noroeste 0 772.8 0.1 23
2019-08-04 00:00:00 11.4 14 Noroeste 17 Noroeste 0 773.1 0.7 23
2019-08-03 23:00:00 11.7 13 Noroeste 18 Norte 0 773 0.8 25
2019-08-03 22:00:00 12.1 15 Noroeste -- -- -- 772.7 0.4 24
2019-08-03 21:00:00 13.6 22 Noroeste 27 Noroeste 0 772.4 -0.1 18
2019-08-03 20:00:00 15.4 20 Noroeste 28 Noroeste 0 772.2 -0.5 25
2019-08-03 19:00:00 16.5 17 Noroeste 26 Noroeste 0 772.3 -0.9 27
2019-08-03 18:00:00 17.3 15 Noroeste 26 Noroeste 0 772.5 -1 32
2019-08-03 17:00:00 17.6 16 Norte 25 Noroeste 0 772.7 -1 27
2019-08-03 16:00:00 18.6 10 Norte 21 Noroeste 0 773.2 -0.5 32
2019-08-03 15:00:00 19.2 9 Nordeste 21 Norte 0 773.5 -0.3 35
2019-08-03 14:00:00 19 11 Norte 22 Norte 0 773.7 0.3 36
2019-08-03 13:00:00 18 10 Nordeste 19 Norte 0 773.7 0.9 30
2019-08-03 12:00:00 17.1 10 Norte 20 Noroeste 0 773.8 1.3 34
2019-08-03 11:00:00 15.8 16 Norte 29 Noroeste 0 773.4 1.2 31
2019-08-03 10:00:00 13.7 26 Noroeste 30 Noroeste 0 772.8 0.7 32
2019-08-03 09:00:00 11.5 23 Noroeste 30 Noroeste 0 772.5 0.4 45
2019-08-03 08:00:00 11.3 19 Noroeste 23 Norte 0 772.2 0.1 31
2019-08-03 07:00:00 10.8 15 Norte 21 Norte 0 772.1 -0.2 30
2019-08-03 06:00:00 10.4 11 Norte 21 Norte 0 772.1 -0.7 37
2019-08-03 05:00:00 10.6 12 Norte 17 Norte 0 772.1 -1.1 41
2019-08-03 04:00:00 12.1 8 Norte 12 Norte 0 772.3 -1.2 24
2019-08-03 03:00:00 12.8 8 Norte 10 Norte 0 772.8 -0.8 16
2019-08-03 02:00:00 13.7 4 Nordeste 14 Norte 0 773.2 -0.4 9
2019-08-03 01:00:00 13.4 11 Norte 16 Norte 0 773.5 0.1 11
2019-08-03 00:00:00 13.9 14 Norte 17 Norte 0 773.6 0.4 10
2019-08-02 23:00:00 13.9 14 Noroeste 15 Noroeste 0 773.6 0.4 10
2019-08-02 22:00:00 14.1 13 Noroeste 18 Noroeste 0 773.4 0.3 10
2019-08-02 21:00:00 15.5 17 Noroeste 20 Noroeste 0 773.2 0 11
2019-08-02 20:00:00 16.7 17 Noroeste 24 Norte 0 773.2 -0.3 20
2019-08-02 19:00:00 17.6 18 Norte 27 Noroeste 0 773.1 -0.5 25
2019-08-02 18:00:00 18.6 19 Norte 28 Noroeste 0 773.2 -0.5 23
2019-08-02 17:00:00 18.8 16 Norte 28 Noroeste 0 773.5 -0.3 20
2019-08-02 16:00:00 19.7 17 Norte 30 Norte 0 773.6 -0.3 14
2019-08-02 15:00:00 19.8 15 Norte 27 Norte 0 773.7 -0.3 14
2019-08-02 14:00:00 20.3 14 Norte 28 Norte 0 773.8 0.2 20
2019-08-02 13:00:00 19.7 14 Norte 23 Norte 0 773.9 0.6 23
2019-08-02 12:00:00 18.6 12 Norte 21 Norte 0 774 1 18
2019-08-02 11:00:00 17.5 15 Norte 20 Norte 0 773.6 1.3 17
2019-08-02 10:00:00 16.6 10 Norte 16 Norte 0 773.3 1 10
2019-08-02 09:00:00 15 9 Norte 22 Norte 0 773 0.7 10
2019-08-02 08:00:00 13.1 21 Noroeste 23 Norte 0 772.3 0 9
2019-08-02 07:00:00 13 12 Norte 13 Norte 0 772.3 -0.3 9
2019-08-02 06:00:00 13.1 12 Noroeste 15 Norte 0 772.3 -0.6 9
2019-08-02 05:00:00 13.2 12 Norte 13 Norte 0 772.3 -0.8 8
2019-08-02 04:00:00 14.5 9 Nordeste 11 Nordeste 0 772.6 -0.7 9
2019-08-02 03:00:00 13.7 9 Norte 20 Norte 0 772.9 -0.7 9
2019-08-02 02:00:00 13.1 16 Norte 21 Norte 0 773.1 -0.3 7
2019-08-02 01:00:00 13 15 Norte 18 Norte 0 773.3 0.2 8
2019-08-02 00:00:00 13.1 13 Norte 21 Norte 0 773.6 0.8 9
2019-08-01 23:00:00 12.7 16 Norte 23 Norte 0 773.4 1 10
2019-08-01 22:00:00 13.1 15 Norte 20 Norte 0 773.1 1.1 9
2019-08-01 21:00:00 14.6 13 Norte 19 Norte 0 772.8 0.7 9
2019-08-01 20:00:00 16.4 14 Norte 33 Noroeste 0 772.4 0.2 9
2019-08-01 19:00:00 17 24 Noroeste 33 Noroeste 0 772 -0.2 13
2019-08-01 18:00:00 17.4 21 Norte 29 Norte 0 772.1 -0.2 12
2019-08-01 17:00:00 18.8 16 Norte 29 Norte 0 772.2 -0.2 15
2019-08-01 16:00:00 19.2 17 Norte 26 Noroeste 0 772.2 -0.3 19
2019-08-01 15:00:00 18.7 18 Norte 33 Noroeste 0 772.3 -0.2 15
2019-08-01 14:00:00 18.3 22 Norte 32 Norte 0 772.4 0.1 12
2019-08-01 13:00:00 18.2 19 Norte 28 Norte 0 772.5 0.6 13
2019-08-01 12:00:00 18 15 Norte 24 Norte 0 772.5 1 9
2019-08-01 11:00:00 17 13 Norte 19 Norte 0 772.3 1.3 16
2019-08-01 10:00:00 15.9 13 Norte 19 Norte 0 771.9 1.2 11
2019-08-01 09:00:00 14.3 12 Nordeste 18 Nordeste 0 771.5 0.9 10
2019-08-01 08:00:00 12.7 12 Norte 18 Norte 0 771 0.3 10
2019-08-01 07:00:00 12.2 9 Norte 14 Norte 0 770.7 -0.3 10
2019-08-01 06:00:00 12.4 8 Norte 13 Norte 0 770.6 -0.7 10
2019-08-01 05:00:00 12.7 9 Norte 13 Norte 0 770.7 -0.8 9
2019-08-01 04:00:00 13.1 8 Norte 16 Nordeste 0 771 -0.8 8
2019-08-01 03:00:00 12.3 9 Norte 21 Noroeste 0 771.3 -0.5 10
2019-08-01 02:00:00 12.1 13 Noroeste 21 Norte 0 771.5 0 11
2019-08-01 01:00:00 11.8 18 Norte 23 Norte 0 771.8 0.7 10
2019-08-01 00:00:00 11.8 20 Norte 31 Norte 0 771.8 1 9
2019-07-31 23:00:00 11.4 25 Norte 31 Norte 0 771.5 0.9 9
2019-07-31 22:00:00 11.7 25 Norte 29 Norte 0 771.1 0.6 7
2019-07-31 21:00:00 12.8 23 Norte 31 Norte 0 770.8 0.3 6
2019-07-31 20:00:00 15 25 Norte 32 Norte 0 770.6 0.1 6
2019-07-31 19:00:00 15.7 19 Norte 29 Norte 0 770.5 -0.2 4
2019-07-31 18:00:00 17 14 Norte 31 Norte 0 770.5 -0.5 6
2019-07-31 17:00:00 17.9 19 Norte 30 Norte 0 770.5 -0.8 5
2019-07-31 16:00:00 18.2 17 Norte 29 Norte 0 770.7 -0.7 14
2019-07-31 15:00:00 19.2 12 Norte 28 Nordeste 0 771 -0.5 17
2019-07-31 14:00:00 19.7 10 Este 22 Este 0 771.3 0 27
2019-07-31 13:00:00 19.1 11 Este 24 Este 0 771.4 0.6 22
2019-07-31 12:00:00 18.6 12 Este 19 Este 0 771.5 1.1 16
2019-07-31 11:00:00 16.8 13 Norte 22 Nordeste 0 771.3 1.3 9
2019-07-31 10:00:00 14.7 15 Norte 26 Norte 0 770.8 0.9 11
2019-07-31 09:00:00 13.4 18 Norte 28 Norte 0 770.4 0.6 13
2019-07-31 08:00:00 11.8 17 Norte 29 Nordeste 0 770 0.3 14
2019-07-31 07:00:00 11.6 19 Norte 29 Norte 0 769.9 0 10
2019-07-31 06:00:00 11.1 21 Norte 34 Norte 0 769.8 -0.5 13
2019-07-31 05:00:00 10.9 24 Norte 42 Norte 0 769.7 -1.1 12
2019-07-31 04:00:00 10 26 Norte 44 Norte 0 769.9 -1.6 14
2019-07-31 03:00:00 9.7 26 Norte 40 Norte 0 770.3 -1.3 15
2019-07-31 02:00:00 9.8 24 Noroeste 32 Norte 0 770.8 -1 17
2019-07-31 01:00:00 9.7 19 Norte 33 Norte 0 771.5 -0.1 20
2019-07-31 00:00:00 9.4 27 Norte 35 Norte 0 771.6 0.5 25
2019-07-30 23:00:00 10.3 18 Noroeste 23 Noroeste 0 771.8 0.8 42
2019-07-30 22:00:00 11 18 Noroeste 27 Noroeste 0 771.6 0.7 26
2019-07-30 21:00:00 11.9 24 Noroeste 27 Noroeste 0 771.1 -0.1 35
2019-07-30 20:00:00 14.3 23 Noroeste 32 Noroeste 0 771 -0.4 30
2019-07-30 19:00:00 15.8 26 Noroeste 33 Noroeste 0 770.9 -0.9 37
2019-07-30 18:00:00 16.8 20 Noroeste 31 Noroeste 0 771.2 -0.8 34
2019-07-30 17:00:00 17.4 21 Noroeste 32 Norte 0 771.4 -1.1 35
2019-07-30 16:00:00 17.3 17 Norte 30 Norte 0 771.8 -0.9 35
2019-07-30 15:00:00 17.4 22 Noroeste 31 Noroeste 0 772 -0.6 36
2019-07-30 14:00:00 17.9 16 Norte 25 Norte 0 772.5 0 35
2019-07-30 13:00:00 16.1 11 Norte 32 Norte 0 772.7 0.4 37
2019-07-30 12:00:00 15.2 24 Norte 40 Norte 0 772.6 0.5 39
2019-07-30 11:00:00 13.9 26 Norte 40 Norte 0 772.5 0.7 36
2019-07-30 10:00:00 13.5 24 Norte 39 Nordeste 0 772.3 0.7 34
2019-07-30 09:00:00 12.1 21 Norte 33 Norte 0 772.1 0.7 30
2019-07-30 08:00:00 11.1 24 Norte 36 Nordeste 0 771.8 0.4 30
2019-07-30 07:00:00 9.9 24 Norte 42 Norte 0 771.6 0.1 33
2019-07-30 06:00:00 10.4 26 Norte 41 Norte 0 771.4 -0.4 32
2019-07-30 05:00:00 10.4 29 Norte 44 Norte 0 771.4 -1 32
2019-07-30 04:00:00 10.2 32 Norte 42 Norte 0 771.5 -1.3 32
2019-07-30 03:00:00 9.3 26 Norte 44 Norte 0 771.8 -1.1 42
2019-07-30 02:00:00 8.7 28 Norte 40 Norte 0 772.4 -0.5 48
2019-07-30 01:00:00 8.6 24 Norte 36 Norte 0 772.8 0.6 58
2019-07-30 00:00:00 8.4 25 Norte 38 Norte 0 772.9 0.9 69
2019-07-29 23:00:00 8.8 27 Norte 42 Norte 0 772.9 1.1 79
2019-07-29 22:00:00 8.8 32 Norte 49 Norte 0 772.2 0.4 78
2019-07-29 21:00:00 10.1 30 Norte 39 Nordeste 0 772 0.1 69
2019-07-29 20:00:00 12.7 31 Norte 42 Norte 0 771.8 -0.1 44
2019-07-29 19:00:00 14.9 31 Norte 41 Norte 0 771.8 -0.3 46
2019-07-29 18:00:00 16.3 30 Norte 39 Norte 0 771.9 -0.3 42
2019-07-29 17:00:00 17.3 29 Norte 40 Norte 0 771.9 -0.4 35
2019-07-29 16:00:00 17 28 Norte 42 Norte 0 772.1 -0.4 34
2019-07-29 15:00:00 17.3 28 Norte 44 Norte 0 772.2 -0.4 29
2019-07-29 14:00:00 17 30 Norte 42 Norte 0 772.3 -0.1 33
2019-07-29 13:00:00 16.9 27 Norte 40 Norte 0 772.5 0.5 35
2019-07-29 12:00:00 16.7 24 Nordeste 37 Norte 0 772.6 1.1 30
2019-07-29 11:00:00 15.7 22 Norte 30 Norte 0 772.4 1.3 27
2019-07-29 10:00:00 13.9 20 Norte 31 Norte 0 772 0.9 44
2019-07-29 09:00:00 12.9 23 Norte 37 Norte 0 771.5 0.5 50
2019-07-29 08:00:00 11.4 26 Noroeste 33 Norte 0 771.1 0.1 54
2019-07-29 07:00:00 10.9 22 Noroeste 30 Noroeste 0 771.1 -0.1 53
2019-07-29 06:00:00 11 20 Noroeste 26 Noroeste 0 771 -0.4 41
2019-07-29 05:00:00 11.2 26 Noroeste 29 Noroeste 0 771 -0.8 49
2019-07-29 04:00:00 11.3 27 Noroeste 30 Noroeste 0 771.2 -0.8 49
2019-07-29 03:00:00 11.5 28 Noroeste 31 Noroeste 0 771.4 -0.7 49
2019-07-29 02:00:00 11.6 27 Noroeste 35 Noroeste 0 771.8 -0.4 50
2019-07-29 01:00:00 11.8 30 Noroeste 37 Noroeste 0 772 0.1 48
2019-07-29 00:00:00 12 30 Noroeste 37 Norte 0 772.1 0.3 53
2019-07-28 23:00:00 12.5 26 Noroeste 32 Norte 0 772.2 0.7 54
2019-07-28 22:00:00 12.8 24 Noroeste 30 Noroeste 0 771.9 0.8 56
2019-07-28 21:00:00 14.4 22 Noroeste 28 Noroeste 0 771.8 0.8 42
2019-07-28 20:00:00 16.5 20 Noroeste 33 Norte 0 771.5 0.2 37
2019-07-28 19:00:00 17.8 24 Norte 33 Norte 0 771.1 -0.5 25
2019-07-28 18:00:00 18.7 23 Noroeste 32 Noroeste 0 771 -0.9 29
2019-07-28 17:00:00 19.3 24 Norte 37 Noroeste 0 771.3 -0.9 38
2019-07-28 16:00:00 20.1 23 Norte 32 Norte 0 771.6 -0.7 33
2019-07-28 15:00:00 21.2 14 Norte 33 Norte 0 771.9 -0.5 27
2019-07-28 14:00:00 21.5 13 Nordeste 24 Norte 0 772.2 -0.1 28
2019-07-28 13:00:00 19.5 16 Norte 26 Norte 0 772.3 0.2 41
2019-07-28 12:00:00 18.9 17 Norte 27 Norte 0 772.4 0.5 43
2019-07-28 11:00:00 18.3 13 Norte 24 Norte 0 772.3 0.7 43
2019-07-28 10:00:00 16.4 16 Norte 22 Norte 0 772.1 0.7 43
2019-07-28 09:00:00 14.7 18 Noroeste 26 Norte 0 771.9 0.7 49
2019-07-28 08:00:00 13.3 18 Noroeste 24 Noroeste 0 771.6 0.2 51
2019-07-28 07:00:00 12.3 17 Norte 23 Noroeste 0 771.4 -0.3 52
2019-07-28 06:00:00 13.1 19 Norte 24 Norte 0 771.2 -1 43
2019-07-28 05:00:00 13.5 19 Noroeste 26 Norte 0 771.4 -1.3 38
2019-07-28 04:00:00 14.3 21 Noroeste 27 Norte 0 771.7 -1.5 2
2019-07-28 03:00:00 15.2 21 Noroeste 31 Noroeste 0 772.2 -1.1 5
2019-07-28 02:00:00 14.8 26 Noroeste 30 Noroeste 0 772.7 -0.8 13
2019-07-28 01:00:00 15.3 28 Noroeste 39 Noroeste 0 773.2 0.2 12
2019-07-28 00:00:00 15.5 34 Noroeste 37 Noroeste 0 773.3 0.6 18
2019-07-27 23:00:00 15.9 36 Noroeste 49 Noroeste 0 773.5 0.8 19
2019-07-27 22:00:00 16 46 Noroeste 51 Noroeste 0 773 -0.1 18
2019-07-26 11:00:00 24.9 15 Sur 36 Sudoeste 0 776.1 1.4 9
2019-07-26 10:00:00 24 11 Sudoeste 28 Oeste 0 775.7 1.4 10
2019-07-26 09:00:00 21.7 20 Oeste 32 Oeste 0 775.2 1 13
2019-07-26 08:00:00 20 24 Oeste 33 Oeste 0 774.7 0.6 15
2019-07-26 07:00:00 19.6 25 Oeste 36 Oeste 0 774.3 0.1 14
2019-07-26 06:00:00 19.6 24 Sudoeste 39 Sudoeste 0 774.2 -0.2 16
2019-07-26 05:00:00 19.3 21 Oeste 31 Oeste 0 774.1 -0.8 12
2019-07-26 04:00:00 19.3 14 Oeste 27 Oeste 0 774.2 -0.9 6
2019-07-26 03:00:00 19.3 17 Oeste 23 Oeste 0 774.4 -0.9 5
2019-07-26 02:00:00 19.5 18 Sudoeste 23 Sudoeste 0 774.9 -0.3 4
2019-07-26 01:00:00 17.9 21 Sudoeste 23 Sudoeste 0 775.1 0.2 6
2019-07-26 00:00:00 17.9 17 Sur 18 Sur 0 775.3 0.8 18
2019-07-25 23:00:00 18.4 4 Sur 6 Sur 0 775.2 1.1 22
2019-07-25 22:00:00 18.3 2 Sur 8 Noroeste 0 774.9 1 22
2019-07-25 21:00:00 19.3 5 Nordeste 14 Noroeste 0 774.5 0.6 19
2019-07-25 20:00:00 21 4 Sudeste 19 Norte 0 774.1 0.3 20
2019-07-25 19:00:00 21.4 5 Nordeste 22 Norte 0 773.9 0 17
2019-07-25 18:00:00 21.9 8 Sudeste 19 Sur 0 773.9 -0.1 25
2019-07-25 17:00:00 23.5 4 Nordeste 29 Norte 0 773.8 -0.3 23
2019-07-25 16:00:00 22.7 13 Norte 23 Norte 0 773.9 -0.3 22
2019-07-25 15:00:00 22.2 12 Norte 25 Nordeste 0 774 -0.1 23
2019-07-25 14:00:00 22.8 18 Sudeste 29 Sudeste 0 774.1 0.3 12
2019-07-25 13:00:00 23.1 9 Norte 23 Norte 0 774.2 0.7 16
2019-07-25 12:00:00 21.7 7 Sudeste 22 Sudeste 0 774.1 0.9 13
2019-07-25 11:00:00 22.1 10 Sudeste 18 Sudeste 0 773.8 1 10
2019-07-25 10:00:00 20.8 7 Norte 15 Oeste 0 773.5 1.1 7
2019-07-25 09:00:00 19.6 6 Sur 14 Oeste 0 773.2 1 4
2019-07-25 08:00:00 17.8 8 Oeste 13 Oeste 0 772.8 0.6 2
2019-07-25 07:00:00 16.6 8 Noroeste 12 Oeste 0 772.4 0.1 2
2019-07-25 06:00:00 16.6 7 Sudoeste 10 Sudoeste 0 772.2 -0.4 2
2019-07-25 05:00:00 16.7 3 Oeste 10 Sudoeste 0 772.2 -0.7 3
2019-07-25 04:00:00 17 7 Sudoeste 13 Sudoeste 0 772.3 -1 3
2019-07-25 03:00:00 16.6 10 Sur 11 Sur 0 772.6 -0.8 4
2019-07-25 02:00:00 16.7 7 Sur 8 Sur 0 772.9 -0.5 18
2019-07-25 01:00:00 16.4 5 Sudeste 13 Sudeste 0 773.3 0.2 3
2019-07-25 00:00:00 17.2 3 Este 9 Norte 0 773.4 0.7 17
2019-07-24 23:00:00 17.4 2 Sur 7 Sudeste 0 773.4 0.8 9
2019-07-24 22:00:00 17.7 5 Sudeste 7 Sudeste 0 773.1 0.6 13
2019-07-24 21:00:00 18.8 5 Sudoeste 14 Norte 0 772.7 0.1 17
2019-07-24 20:00:00 19.3 9 Norte 21 Norte 0 772.6 0.2 12
2019-07-24 19:00:00 21.6 9 Norte 25 Sudeste 0 772.5 -0.1 13
2019-07-24 18:00:00 21.9 5 Este 27 Norte 0 772.6 -0.3 23
2019-07-24 17:00:00 21.1 18 Norte 27 Noroeste 0 772.4 -0.5 22
2019-07-24 16:00:00 21.3 15 Norte 26 Norte 0 772.6 -0.4 22
2019-07-24 15:00:00 21.7 13 Nordeste 25 Norte 0 772.9 -0.2 33
2019-07-24 14:00:00 22 9 Este 24 Este 0 772.9 0.2 19
2019-07-24 13:00:00 21.4 12 Sudeste 22 Este 0 773 0.6 25
2019-07-24 12:00:00 20.8 9 Este 19 Sudeste 0 773.1 0.8 24
2019-07-24 11:00:00 20.8 6 Norte 13 Nordeste 0 772.7 0.7 17
2019-07-24 10:00:00 20.8 6 Nordeste 12 Nordeste 0 772.4 0.6 7
2019-07-24 09:00:00 19.8 7 Sudeste 12 Sudeste 0 772.3 0.6 2
2019-07-24 08:00:00 17.8 7 Sudeste 12 Sudeste 0 772 0.1 3
2019-07-24 07:00:00 16.1 7 Sudeste 13 Nordeste 0 771.8 -0.3 2
2019-07-24 06:00:00 16.6 8 Nordeste 17 Este 0 771.7 -0.9 3
2019-07-24 05:00:00 15.8 12 Este 17 Nordeste 0 771.9 -1 3
2019-07-24 04:00:00 15.1 8 Nordeste 16 Nordeste 0 772.1 -1.3 5
2019-07-24 03:00:00 14.2 10 Nordeste 17 Norte 0 772.6 -0.9 7
2019-07-24 02:00:00 13.7 9 Norte 24 Norte 0 772.9 -0.6 8
2019-07-24 01:00:00 12.8 17 Norte 31 Norte 0 773.4 0.5 12
2019-07-24 00:00:00 13.4 20 Nordeste 23 Nordeste 0 773.5 0.6 11
2019-07-23 23:00:00 12.9 16 Norte 31 Norte 0 773.5 1 11
2019-07-23 22:00:00 13 27 Norte 33 Norte 0 772.9 0.6 13
2019-07-23 21:00:00 14.3 20 Norte 33 Norte 0 772.9 0.5 12
2019-07-23 20:00:00 16.2 26 Norte 46 Norte 0 772.5 -0.3 10
2019-07-23 19:00:00 17.4 37 Norte 48 Norte 0 772.3 -1 9
2019-07-23 18:00:00 17.9 33 Norte 44 Norte 0 772.4 -1.2 10
2019-07-23 17:00:00 20 26 Norte 38 Norte 0 772.8 -0.9 10
2019-07-23 16:00:00 20.3 18 Norte 34 Norte 0 773.3 -0.5 11
2019-07-23 15:00:00 20.6 20 Norte 31 Norte 0 773.6 0 7
2019-07-23 14:00:00 20.3 18 Norte 32 Norte 0 773.7 0.1 9
2019-07-23 13:00:00 19.3 21 Norte 33 Norte 0 773.8 0.5 11
2019-07-23 12:00:00 18.8 21 Norte 36 Norte 0 773.6 0.5 9
2019-07-23 11:00:00 17 18 Norte 26 Norte 0 773.6 0.7 9
2019-07-23 10:00:00 16.6 16 Norte 22 Noroeste 0 773.3 0.5 9
2019-07-23 09:00:00 15.5 15 Norte 21 Norte 0 773.1 0.3 8
2019-07-23 08:00:00 14.3 11 Norte 17 Norte 0 772.9 0 7
2019-07-23 07:00:00 13.4 13 Norte 22 Norte 0 772.8 -0.3 5
2019-07-23 06:00:00 13.6 18 Noroeste 29 Norte 0 772.8 -0.5 4
2019-07-23 05:00:00 13.5 16 Noroeste 21 Noroeste 0 772.9 -0.9 6
2019-07-23 04:00:00 13.4 17 Norte 21 Norte 0 773.1 -1.2 7
2019-07-23 03:00:00 13.7 16 Norte 18 Norte 0 773.3 -1 7
2019-07-23 02:00:00 14.4 13 Norte 17 Norte 0 773.8 -0.2 8
2019-07-23 01:00:00 14.5 12 Norte 20 Norte 0 774.3 0.6 9
2019-07-23 00:00:00 13.8 19 Norte 22 Norte 0 774.3 0.7 8
2019-07-22 23:00:00 14 19 Norte 23 Norte 0 774 0.6 10
2019-07-22 22:00:00 14.1 22 Noroeste 26 Noroeste 0 773.7 0 10
2019-07-22 21:00:00 15.9 22 Noroeste 32 Norte 0 773.6 0.3 10
2019-07-22 20:00:00 18.2 29 Noroeste 38 Noroeste 0 773.4 -0.1 10
2019-07-22 19:00:00 19.8 21 Noroeste 47 Noroeste 0 773.7 -0.6 11
2019-07-22 18:00:00 21.7 43 Noroeste 55 Noroeste 0 773.3 -1.4 10
2019-07-22 17:00:00 22.1 40 Noroeste 47 Noroeste 0 773.5 -1.5 14
2019-07-22 16:00:00 22.7 28 Noroeste 39 Norte 0 774.3 -0.8 13
2019-07-22 15:00:00 22.6 20 Noroeste 37 Noroeste 0 774.7 -0.4 11
2019-07-22 14:00:00 22.6 23 Norte 36 Noroeste 0 775 0 12
2019-07-22 13:00:00 22.2 18 Norte 30 Noroeste 0 775.1 0.4 15
2019-07-22 12:00:00 21.6 13 Norte 21 Noroeste 0 775.1 0.6 12
2019-07-22 11:00:00 20.4 8 Norte 21 Noroeste 0 775 0.7 7
2019-07-22 10:00:00 20.2 11 Noroeste 22 Noroeste 0 774.7 0.4 6
2019-07-22 09:00:00 18 20 Noroeste 28 Noroeste 0 774.5 0.3 6
2019-07-22 08:00:00 16.8 26 Noroeste 30 Noroeste 0 774.3 0.1 4
2019-07-22 07:00:00 16 27 Noroeste 31 Noroeste 0 774.3 0.1 5
2019-07-22 06:00:00 15 21 Noroeste 24 Noroeste 0 774.2 -0.5 7
2019-07-22 05:00:00 14.5 21 Noroeste 27 Noroeste 0 774.2 -1 8
2019-07-22 04:00:00 15.3 22 Noroeste 28 Noroeste 0 774.2 -1.5 6
2019-07-22 03:00:00 15.5 25 Noroeste 28 Noroeste 0 774.7 -1.3 6
2019-07-22 02:00:00 15.1 19 Noroeste 24 Noroeste 0 775.2 -0.9 7
2019-07-22 01:00:00 15.5 14 Noroeste 19 Noroeste 0 775.7 0 5
2019-07-22 00:00:00 15.7 16 Noroeste 18 Noroeste 0 776 0.8 5
2019-07-21 23:00:00 16.1 10 Noroeste 19 Noroeste 0 776.1 1.1 4
2019-07-21 22:00:00 16.6 18 Noroeste 27 Noroeste 0 775.7 0.7 7
2019-07-21 21:00:00 17.3 21 Noroeste 27 Noroeste 0 775.2 0.3 14
2019-07-21 20:00:00 19.7 21 Noroeste 32 Noroeste 0 775 -0.1 16
2019-07-21 19:00:00 20.5 21 Noroeste 34 Noroeste 0 775 -0.2 16
2019-07-21 18:00:00 21.6 17 Noroeste 32 Norte 0 774.9 -0.4 14
2019-07-21 17:00:00 21.3 15 Norte 25 Noroeste 0 775.1 -0.3 19
2019-07-21 16:00:00 23.3 13 Norte 26 Norte 0 775.2 -0.3 19
2019-07-21 15:00:00 22.3 14 Norte 24 Norte 0 775.3 -0.2 19
2019-07-21 14:00:00 23.1 5 Este 20 Este 0 775.4 0.2 20
2019-07-21 13:00:00 23.1 5 Nordeste 18 Norte 0 775.5 0.6 20
2019-07-21 12:00:00 22.1 7 Sudeste 19 Sudeste 0 775.5 0.9 16
2019-07-21 11:00:00 21.9 6 Sudeste 15 Sudoeste 0 775.2 1 12
2019-07-21 10:00:00 20.8 3 Norte 9 Sur 0 774.9 0.9 9
2019-07-21 09:00:00 19.2 3 Sur 11 Sudoeste 0 774.6 0.8 4
2019-07-21 08:00:00 16.9 12 Sudoeste 15 Sudoeste 0 774.2 0.4 5
2019-07-21 07:00:00 15.6 3 Sur 7 Sudeste 0 774 0 10
2019-07-21 06:00:00 15.1 0 Calma 5 Oeste 0 773.8 -0.6 8
2019-07-21 05:00:00 15.5 4 Sur 9 Sur 0 773.8 -0.9 3
2019-07-21 04:00:00 15.5 7 Sudeste 10 Sudeste 0 774 -1 4
2019-07-21 03:00:00 15.7 3 Sudoeste 11 Sudoeste 0 774.4 -0.7 5
2019-07-21 02:00:00 15.3 8 Sudoeste 10 Sur 0 774.7 -0.3 9
2019-07-21 01:00:00 15.2 6 Sudoeste 13 Sudoeste 0 775 0.7 21
2019-07-21 00:00:00 15.3 5 Sur 13 Sudoeste 0 775.1 1.2 19
2019-07-20 23:00:00 16 2 Este 14 Norte 0 775 1.4 13
2019-07-20 22:00:00 15.9 7 Noroeste 16 Noroeste 0 774.3 1 23
2019-07-20 21:00:00 17.3 11 Noroeste 19 Norte 0 773.9 0.5 22
2019-07-20 20:00:00 18.6 12 Norte 18 Noroeste 0 773.6 0.3 20
2019-07-20 19:00:00 19.9 6 Oeste 20 Norte 0 773.3 0 14
2019-07-20 18:00:00 19.4 13 Sudeste 20 Sudeste 0 773.4 0 14
2019-07-20 17:00:00 18.8 13 Sudeste 26 Sudeste 0 773.3 -0.3 8
2019-07-20 16:00:00 19 16 Sudeste 34 Sudeste 0 773.3 -0.3 15
2019-07-20 15:00:00 19 16 Sudeste 29 Sudeste 0 773.4 0.1 18
2019-07-20 14:00:00 19.4 15 Sudeste 24 Sudeste 0 773.6 0.7 19
2019-07-20 13:00:00 19.7 13 Sudeste 25 Este 0 773.6 1 24
2019-07-20 12:00:00 19.6 11 Este 21 Sudeste 0 773.3 1 22
2019-07-20 11:00:00 18.7 10 Sudeste 21 Sudeste 0 772.9 1.2 27
2019-07-20 10:00:00 17.3 5 Norte 16 Este 0 772.6 1.2 20
2019-07-20 09:00:00 16.6 10 Este 18 Este 0 772.3 1.1 16
2019-07-20 08:00:00 14.5 10 Este 17 Este 0 771.7 0.7 13
2019-07-20 07:00:00 12.5 15 Este 19 Este 0 771.4 0.3 16
2019-07-20 06:00:00 12.5 11 Este 24 Nordeste 0 771.2 -0.2 18
2019-07-20 05:00:00 11.3 16 Nordeste 24 Nordeste 0 771 -0.4 29
2019-07-20 04:00:00 11.1 17 Nordeste 24 Nordeste 0 771.1 -0.6 38
2019-07-20 03:00:00 10.9 13 Norte 30 Nordeste 0 771.4 -0.5 42
2019-07-20 02:00:00 10.8 24 Norte 34 Nordeste 0 771.4 -0.3 50
2019-07-20 01:00:00 10.2 27 Nordeste 41 Norte 0 771.7 0.2 53
2019-07-20 00:00:00 9.8 29 Norte 41 Norte 0 771.9 0.6 54
2019-07-19 23:00:00 10.2 33 Norte 48 Norte 0 771.7 0.5 49
2019-07-19 22:00:00 10.8 32 Norte 45 Norte 0 771.5 0.5 45
2019-07-19 21:00:00 11.6 22 Norte 37 Norte 0 771.3 0.2 42
2019-07-19 20:00:00 13.2 27 Norte 37 Norte 0 771.2 0 39
2019-07-19 19:00:00 14.4 28 Norte 43 Norte 0 771 -0.4 36
2019-07-19 18:00:00 15.1 31 Norte 43 Norte 0 771.1 -0.7 32
2019-07-19 17:00:00 15.9 26 Norte 41 Norte 0 771.2 -0.9 22
2019-07-19 16:00:00 16.5 28 Norte 42 Norte 0 771.4 -0.7 21
2019-07-19 15:00:00 17.5 27 Norte 40 Norte 0 771.8 -0.1 19
2019-07-19 14:00:00 17.5 19 Nordeste 37 Norte 0 772.1 0.5 18
2019-07-19 13:00:00 16.3 26 Norte 42 Norte 0 772.1 0.7 13
2019-07-19 12:00:00 15.7 27 Norte 39 Norte 0 771.9 0.6 12
2019-07-19 11:00:00 15.3 27 Norte 40 Norte 0 771.6 0.7 12
2019-07-19 10:00:00 14.7 28 Norte 38 Norte 0 771.4 0.8 11
2019-07-19 09:00:00 13.2 22 Norte 32 Nordeste 0 771.3 0.7 11
2019-07-19 08:00:00 11.5 19 Norte 29 Norte 0 770.9 0.5 12
2019-07-19 07:00:00 10.4 16 Noroeste 32 Nordeste 0 770.6 0.2 17
2019-07-19 06:00:00 10.5 21 Norte 32 Norte 0 770.6 0 24
2019-07-19 05:00:00 10.6 24 Norte 34 Norte 0 770.4 -0.8 24
2019-07-19 04:00:00 10.4 27 Norte 39 Norte 0 770.4 -1.3 20
2019-07-19 03:00:00 11.1 26 Norte 35 Norte 0 770.6 -1.3 16
2019-07-19 02:00:00 11.5 27 Norte 37 Norte 0 771.2 -0.4 17
2019-07-19 01:00:00 11.7 27 Norte 40 Norte 0 771.7 0.4 15
2019-07-19 00:00:00 11.9 30 Norte 42 Norte 0 771.9 0.8 19